Time;durP1;ratioP1;P1;durP2;ratioP2;P2;SDS_P1;SDS_P2;PMS_P1;PMS_P2;Temp;Humidity;BMP_temperature;BMP_pressure;BME280_temperature;BME280_humidity;BME280_pressure;Samples;Min_cycle;Max_cycle;Signal;HPM_P1;HPM_P2
2023/01/31 00:02:05;;;;;;;3.07;1.77;;;;;;;3.27;100.00;97034.53;5036860;28;20205;-68
2023/01/31 00:04:31;;;;;;;4.53;2.30;;;;;;;3.32;100.00;97037.63;5036539;28;20383;-67
2023/01/31 00:06:57;;;;;;;4.43;2.73;;;;;;;3.28;100.00;97025.78;5037312;28;20237;-68
2023/01/31 00:09:25;;;;;;;6.27;2.50;;;;;;;3.47;99.80;97023.47;5036210;28;20236;-68
2023/01/31 00:11:52;;;;;;;6.00;3.07;;;;;;;3.34;99.83;97022.72;5037346;28;20518;-67
2023/01/31 00:14:20;;;;;;;5.87;2.77;;;;;;;3.33;99.95;97026.25;5036726;28;20212;-67
2023/01/31 00:16:47;;;;;;;4.57;1.67;;;;;;;3.24;100.00;97021.75;5036524;28;20213;-69
2023/01/31 00:19:13;;;;;;;7.27;2.80;;;;;;;3.20;100.00;97025.53;5036204;28;20263;-68
2023/01/31 00:21:42;;;;;;;7.63;2.70;;;;;;;3.22;100.00;97021.00;5038093;28;20638;-67
2023/01/31 00:24:09;;;;;;;2.07;1.43;;;;;;;3.17;100.00;97029.19;5035934;28;20768;-66
2023/01/31 00:26:37;;;;;;;3.47;1.30;;;;;;;3.21;100.00;97027.19;5036086;28;20399;-68
2023/01/31 00:29:04;;;;;;;8.57;2.90;;;;;;;3.20;100.00;97036.75;5036305;28;20641;-68
2023/01/31 00:31:32;;;;;;;3.73;1.50;;;;;;;3.13;100.00;97035.56;5036522;28;20511;-68
2023/01/31 00:33:59;;;;;;;7.73;3.03;;;;;;;3.18;100.00;97024.78;5035721;28;20208;-66
2023/01/31 00:36:28;;;;;;;5.13;1.97;;;;;;;3.23;100.00;97027.88;5036594;28;20208;-68
2023/01/31 00:38:56;;;;;;;1.20;1.03;;;;;;;3.20;100.00;97028.13;5036688;28;20210;-68
2023/01/31 00:41:24;;;;;;;3.10;1.90;;;;;;;3.14;100.00;97036.38;5036058;28;20565;-68
2023/01/31 00:43:52;;;;;;;9.97;1.87;;;;;;;3.15;100.00;97035.44;5035788;28;20210;-68
2023/01/31 00:46:19;;;;;;;10.80;2.87;;;;;;;3.01;100.00;97039.03;5036046;28;20564;-68
2023/01/31 00:48:46;;;;;;;1.17;1.07;;;;;;;3.00;100.00;97033.94;5036254;28;20256;-68
2023/01/31 00:51:12;;;;;;;10.60;2.90;;;;;;;3.03;100.00;97034.56;5036350;28;20636;-66
2023/01/31 00:53:39;;;;;;;7.50;2.37;;;;;;;2.94;100.00;97026.63;5035565;28;20493;-68
2023/01/31 00:56:08;;;;;;;4.47;2.23;;;;;;;2.80;100.00;97033.75;5035433;28;20584;-68
2023/01/31 00:58:35;;;;;;;6.47;1.97;;;;;;;2.83;100.00;97029.16;5035671;28;20672;-69
2023/01/31 01:01:11;;;;;;;7.83;3.00;;;;;;;2.96;100.00;97023.91;5036091;28;20751;-67
2023/01/31 01:03:39;;;;;;;7.53;3.10;;;;;;;2.76;100.00;97025.34;5034950;28;20695;-68
2023/01/31 01:06:07;;;;;;;4.57;1.80;;;;;;;2.75;100.00;97025.44;5035368;28;20364;-67
2023/01/31 01:08:34;;;;;;;8.43;2.97;;;;;;;2.68;100.00;97024.22;5036318;28;20360;-67
2023/01/31 01:11:05;;;;;;;6.70;3.00;;;;;;;2.73;100.00;97017.75;5035785;28;20862;-65
2023/01/31 01:13:31;;;;;;;5.60;2.90;;;;;;;2.53;100.00;97023.56;5035462;28;20205;-66
2023/01/31 01:15:58;;;;;;;6.93;2.43;;;;;;;2.56;100.00;97020.75;5035779;28;20204;-67
2023/01/31 01:18:26;;;;;;;3.07;1.80;;;;;;;2.58;100.00;97021.47;5035596;28;20252;-65
2023/01/31 01:20:52;;;;;;;7.87;2.70;;;;;;;2.37;100.00;97021.31;5035657;28;20731;-67
2023/01/31 01:23:19;;;;;;;9.53;1.77;;;;;;;2.40;100.00;97023.72;5036386;28;20201;-66
2023/01/31 01:25:45;;;;;;;6.37;3.00;;;;;;;2.27;100.00;97028.13;5034494;28;20206;-67
2023/01/31 01:28:12;;;;;;;2.43;1.73;;;;;;;2.22;100.00;97035.41;5035324;28;20227;-65
2023/01/31 01:30:38;;;;;;;3.20;1.80;;;;;;;2.38;100.00;97033.38;5036921;28;20226;-67
2023/01/31 01:33:05;;;;;;;15.43;3.20;;;;;;;2.27;100.00;97035.94;5035748;28;20210;-67
2023/01/31 01:35:33;;;;;;;3.37;1.73;;;;;;;2.30;100.00;97039.13;5034725;28;20215;-66
2023/01/31 01:37:59;;;;;;;5.47;3.00;;;;;;;2.28;100.00;97029.75;5035555;28;20208;-68
2023/01/31 01:40:26;;;;;;;6.73;2.87;;;;;;;2.15;100.00;97028.97;5035526;28;20233;-66
2023/01/31 01:42:52;;;;;;;3.53;2.17;;;;;;;2.14;100.00;97027.28;5035598;28;20229;-67
2023/01/31 01:45:19;;;;;;;7.90;3.03;;;;;;;2.05;100.00;97023.59;5035049;28;20558;-68
2023/01/31 01:47:49;;;;;;;5.97;2.97;;;;;;;2.22;100.00;97031.03;5035277;28;20397;-67
2023/01/31 01:50:22;;;;;;;7.80;2.93;;;;;;;2.24;100.00;97023.97;5035371;28;20453;-67
2023/01/31 01:52:54;;;;;;;9.50;3.17;;;;;;;2.12;100.00;97039.59;5035870;28;20205;-67
2023/01/31 01:55:24;;;;;;;12.20;3.03;;;;;;;1.91;100.00;97034.09;5034473;28;20931;-65
2023/01/31 01:57:55;;;;;;;6.80;2.30;;;;;;;1.93;100.00;97045.22;5035411;28;20197;-67
2023/01/31 02:00:24;;;;;;;6.00;2.77;;;;;;;1.98;100.00;97037.13;5035353;28;20225;-65
2023/01/31 02:02:53;;;;;;;4.13;2.07;;;;;;;1.90;100.00;97044.63;5035408;28;20450;-66
2023/01/31 02:05:24;;;;;;;12.27;2.70;;;;;;;1.95;100.00;97037.34;5034272;28;20804;-67
2023/01/31 02:07:52;;;;;;;4.40;2.30;;;;;;;1.98;100.00;97040.53;5035309;28;20225;-67
2023/01/31 02:10:24;;;;;;;6.40;3.10;;;;;;;2.00;100.00;97046.47;5035846;28;20226;-67
2023/01/31 02:12:51;;;;;;;7.23;2.97;;;;;;;1.81;100.00;97055.63;5039456;28;20580;-66
2023/01/31 02:15:18;;;;;;;6.57;2.37;;;;;;;1.83;100.00;97051.16;5038266;28;20201;-67
2023/01/31 02:17:44;;;;;;;6.53;2.40;;;;;;;1.89;100.00;97053.34;5039093;28;20573;-67
2023/01/31 02:20:26;;;;;;;5.30;2.67;;;;;;;2.07;100.00;97052.88;5039287;28;20232;-67
2023/01/31 02:23:11;;;;;;;9.43;3.43;;;;;;;1.92;100.00;97058.31;5039274;28;20218;-66
2023/01/31 02:25:58;;;;;;;6.47;3.37;;;;;;;1.94;100.00;97061.66;5037784;28;20247;-67
2023/01/31 02:28:54;;;;;;;9.50;3.27;;;;;;;2.05;100.00;97059.97;5038978;28;20213;-67
2023/01/31 02:32:02;;;;;;;10.67;3.13;;;;;;;2.11;100.00;97063.91;5038445;28;20202;-66
2023/01/31 02:34:37;;;;;;;8.37;3.37;;;;;;;2.03;100.00;97066.22;5038282;28;20205;-67
2023/01/31 02:37:16;;;;;;;8.80;3.30;;;;;;;1.95;100.00;97077.13;5038755;28;20664;-67
2023/01/31 02:39:52;;;;;;;7.87;2.60;;;;;;;1.96;100.00;97081.41;5038878;28;20599;-67
2023/01/31 02:42:25;;;;;;;6.17;2.37;;;;;;;2.01;100.00;97081.06;5039061;28;20197;-67
2023/01/31 02:44:59;;;;;;;6.80;2.63;;;;;;;1.93;100.00;97085.97;5038410;28;20210;-66
2023/01/31 02:47:38;;;;;;;10.93;3.17;;;;;;;2.03;100.00;97087.84;5038298;28;20236;-67
2023/01/31 02:50:14;;;;;;;9.13;2.60;;;;;;;1.93;100.00;97094.59;5038138;28;20229;-66
2023/01/31 02:52:46;;;;;;;5.43;2.57;;;;;;;1.97;100.00;97098.66;5038776;28;20723;-66
2023/01/31 02:58:06;;;;;;;14.00;3.27;;;;;;;1.92;100.00;97090.34;5038501;28;20598;-67
2023/01/31 03:00:35;;;;;;;8.13;3.50;;;;;;;1.89;100.00;97089.72;5038089;28;20244;-66
2023/01/31 03:03:05;;;;;;;10.40;3.37;;;;;;;1.83;100.00;97090.97;5037832;28;20208;-66
2023/01/31 03:05:32;;;;;;;9.70;3.13;;;;;;;1.81;100.00;97086.81;5037300;28;20523;-66
2023/01/31 03:08:03;;;;;;;6.00;3.07;;;;;;;1.77;100.00;97080.16;5038005;28;20237;-67
2023/01/31 03:10:52;;;;;;;8.13;3.13;;;;;;;1.75;100.00;97083.81;5038281;28;20428;-67
2023/01/31 03:13:31;;;;;;;7.03;3.00;;;;;;;1.78;100.00;97084.41;5037716;28;20724;-67
2023/01/31 03:18:57;;;;;;;9.03;2.73;;;;;;;1.84;100.00;97086.59;5038127;28;20664;-67
2023/01/31 03:21:29;;;;;;;5.87;2.53;;;;;;;1.83;100.00;97088.38;5037926;28;20205;-67
2023/01/31 03:23:57;;;;;;;5.13;2.53;;;;;;;1.80;100.00;97099.91;5036929;28;20198;-67
2023/01/31 03:26:25;;;;;;;6.37;2.93;;;;;;;1.85;100.00;97096.06;5037463;28;20292;-67
2023/01/31 03:28:56;;;;;;;13.30;2.43;;;;;;;1.91;100.00;97103.44;5037486;28;20538;-68
2023/01/31 03:31:26;;;;;;;11.23;2.83;;;;;;;1.85;100.00;97103.84;5037753;28;20225;-68
2023/01/31 03:33:56;;;;;;;5.30;2.87;;;;;;;1.86;100.00;97102.94;5036990;28;20232;-68
2023/01/31 03:36:31;;;;;;;5.50;2.73;;;;;;;1.95;100.00;97099.72;5038048;28;20292;-68
2023/01/31 03:39:06;;;;;;;10.77;2.70;;;;;;;1.91;100.00;97103.44;5037429;28;20618;-68
2023/01/31 03:41:42;;;;;;;12.60;2.47;;;;;;;1.95;100.00;97115.31;5037945;28;20206;-68
2023/01/31 03:44:14;;;;;;;9.37;2.27;;;;;;;1.97;100.00;97103.00;5036380;28;20216;-68
2023/01/31 03:46:45;;;;;;;12.00;2.80;;;;;;;1.91;100.00;97103.44;5038118;28;20209;-68
2023/01/31 03:49:15;;;;;;;11.57;3.37;;;;;;;1.87;100.00;97102.81;5037056;28;20230;-68
2023/01/31 03:51:48;;;;;;;6.67;2.90;;;;;;;1.87;100.00;97107.16;5037464;28;20210;-68
2023/01/31 03:54:19;;;;;;;5.33;2.17;;;;;;;1.73;100.00;97104.66;5035282;28;20205;-68
2023/01/31 03:56:54;;;;;;;6.07;2.20;;;;;;;1.74;100.00;97106.34;5037098;28;20594;-68
2023/01/31 03:59:26;;;;;;;6.97;2.40;;;;;;;1.82;100.00;97104.91;5037332;28;20213;-68
2023/01/31 04:01:57;;;;;;;9.23;2.30;;;;;;;1.81;100.00;97107.59;5037468;28;20209;-68
2023/01/31 04:04:28;;;;;;;9.37;2.43;;;;;;;1.81;100.00;97108.41;5036364;28;20632;-68
2023/01/31 04:06:56;;;;;;;5.20;3.03;;;;;;;1.86;100.00;97115.91;5036894;28;20319;-68
2023/01/31 04:09:22;;;;;;;6.00;2.33;;;;;;;1.76;100.00;97111.41;5036445;28;20229;-68
2023/01/31 04:11:50;;;;;;;10.40;3.07;;;;;;;1.83;100.00;97127.34;5037399;28;20213;-68
2023/01/31 04:14:17;;;;;;;5.43;2.67;;;;;;;1.78;100.00;97123.38;5036427;28;20213;-68
2023/01/31 04:16:43;;;;;;;6.67;3.30;;;;;;;1.79;100.00;97130.25;5036891;28;20212;-68
2023/01/31 04:19:10;;;;;;;5.57;3.00;;;;;;;1.74;100.00;97134.91;5037367;28;20709;-68
2023/01/31 04:21:36;;;;;;;9.67;2.43;;;;;;;1.67;100.00;97135.41;5036874;28;20209;-68
2023/01/31 04:24:04;;;;;;;1.93;1.60;;;;;;;1.80;100.00;97142.31;5036353;28;20201;-68
2023/01/31 04:26:31;;;;;;;8.80;2.43;;;;;;;1.72;100.00;97148.94;5036206;28;20696;-68
2023/01/31 04:28:57;;;;;;;7.63;3.10;;;;;;;1.76;100.00;97158.19;5036160;28;20491;-68
2023/01/31 04:31:24;;;;;;;11.23;2.63;;;;;;;1.71;100.00;97155.91;5036930;28;20205;-68
2023/01/31 04:33:50;;;;;;;8.17;3.00;;;;;;;1.65;100.00;97156.31;5036201;28;20208;-68
2023/01/31 04:36:17;;;;;;;4.30;2.27;;;;;;;1.71;100.00;97163.69;5036446;28;20383;-68
2023/01/31 04:38:43;;;;;;;8.87;3.13;;;;;;;1.74;100.00;97166.09;5036641;28;20212;-68
2023/01/31 04:41:11;;;;;;;6.80;3.03;;;;;;;1.72;100.00;97170.56;5036550;28;20206;-68
2023/01/31 04:43:37;;;;;;;8.13;3.07;;;;;;;1.68;100.00;97163.91;5035824;28;20212;-68
2023/01/31 04:46:04;;;;;;;3.53;1.87;;;;;;;1.67;100.00;97164.00;5036376;28;20228;-68
2023/01/31 04:48:31;;;;;;;12.23;3.23;;;;;;;1.68;100.00;97171.72;5036899;28;20229;-68
2023/01/31 04:50:57;;;;;;;8.83;3.10;;;;;;;1.62;100.00;97156.50;5036082;28;20739;-68
2023/01/31 04:53:23;;;;;;;6.87;2.20;;;;;;;1.62;100.00;97155.69;5036482;28;20668;-68
2023/01/31 04:55:53;;;;;;;10.40;3.33;;;;;;;1.74;100.00;97149.69;5035929;28;20589;-68
2023/01/31 04:58:22;;;;;;;4.53;2.30;;;;;;;1.77;100.00;97152.91;5035892;28;20197;-68
2023/01/31 05:00:48;;;;;;;4.20;1.67;;;;;;;1.79;100.00;97156.22;5035734;28;20788;-68
2023/01/31 05:03:15;;;;;;;2.97;2.03;;;;;;;1.72;100.00;97147.19;5037127;28;20574;-68
2023/01/31 05:05:41;;;;;;;6.60;2.43;;;;;;;1.74;100.00;97158.28;5035256;28;20198;-68
2023/01/31 05:08:08;;;;;;;5.67;2.70;;;;;;;1.76;100.00;97158.19;5035685;28;20224;-68
2023/01/31 05:10:36;;;;;;;10.23;2.70;;;;;;;1.81;100.00;97159.56;5036393;28;20228;-68
2023/01/31 05:13:02;;;;;;;7.13;2.80;;;;;;;1.91;100.00;97163.22;5036506;28;20332;-68
2023/01/31 05:15:31;;;;;;;12.20;3.40;;;;;;;2.01;100.00;97161.66;5035017;28;20209;-68
2023/01/31 05:18:01;;;;;;;6.17;2.50;;;;;;;1.96;100.00;97163.72;5035345;28;20296;-68
2023/01/31 05:20:28;;;;;;;8.43;3.60;;;;;;;2.03;100.00;97171.00;5035902;28;20431;-68
2023/01/31 05:22:55;;;;;;;6.97;3.07;;;;;;;2.01;100.00;97174.63;5036142;28;20582;-68
2023/01/31 05:25:21;;;;;;;12.30;2.80;;;;;;;2.00;100.00;97178.19;5034812;28;20204;-68
2023/01/31 05:27:47;;;;;;;11.23;3.53;;;;;;;2.02;100.00;97178.91;5035740;28;20615;-68
2023/01/31 05:30:14;;;;;;;6.50;2.87;;;;;;;2.13;100.00;97174.66;5036027;28;20651;-67
2023/01/31 05:32:44;;;;;;;14.53;4.07;;;;;;;2.21;100.00;97179.34;5035752;28;20212;-67
2023/01/31 05:35:11;;;;;;;9.77;3.23;;;;;;;1.99;100.00;97179.94;5035356;28;20685;-67
2023/01/31 05:37:41;;;;;;;10.43;3.37;;;;;;;2.05;100.00;97170.91;5036940;28;20615;-67
2023/01/31 05:40:09;;;;;;;17.27;3.63;;;;;;;1.99;100.00;97166.13;5035742;28;20232;-66
2023/01/31 05:42:35;;;;;;;6.83;2.83;;;;;;;1.88;100.00;97159.06;5036020;28;20208;-67
2023/01/31 05:45:03;;;;;;;8.97;2.73;;;;;;;1.93;100.00;97156.13;5035033;28;20201;-67
2023/01/31 05:47:30;;;;;;;6.67;2.47;;;;;;;1.87;100.00;97160.00;5040116;28;20673;-66
2023/01/31 05:49:57;;;;;;;9.27;3.50;;;;;;;1.97;100.00;97161.03;5040039;28;20259;-66
2023/01/31 05:52:24;;;;;;;13.00;4.00;;;;;;;1.79;100.00;97171.81;5039917;28;20205;-66
2023/01/31 05:54:50;;;;;;;8.03;2.80;;;;;;;1.80;100.00;97172.66;5038344;28;21153;-67
2023/01/31 05:57:18;;;;;;;10.10;3.80;;;;;;;1.88;100.00;97169.44;5040098;28;20882;-66
2023/01/31 05:59:44;;;;;;;6.13;3.03;;;;;;;1.84;100.00;97173.16;5037020;28;20221;-66
2023/01/31 06:02:11;;;;;;;5.83;2.10;;;;;;;1.72;100.00;97175.75;5036025;28;20484;-66
2023/01/31 06:04:38;;;;;;;8.27;2.73;;;;;;;1.69;100.00;97170.75;5038311;28;20784;-67
2023/01/31 06:07:05;;;;;;;10.40;3.07;;;;;;;1.80;100.00;97173.47;5039288;28;20208;-67
2023/01/31 06:09:32;;;;;;;5.40;2.80;;;;;;;1.68;100.00;97168.25;5038407;28;20441;-66
2023/01/31 06:11:58;;;;;;;9.83;2.97;;;;;;;1.67;100.00;97164.84;5039374;28;20201;-67
2023/01/31 06:14:25;;;;;;;4.57;2.87;;;;;;;1.61;100.00;97174.81;5039223;28;20410;-66
2023/01/31 06:16:51;;;;;;;4.73;2.87;;;;;;;1.53;100.00;97174.47;5038154;28;20464;-66
2023/01/31 06:19:20;;;;;;;7.33;2.30;;;;;;;1.44;100.00;97169.84;5039259;28;20616;-66
2023/01/31 06:21:46;;;;;;;6.50;2.90;;;;;;;1.51;100.00;97182.34;5039438;28;20209;-67
2023/01/31 06:24:14;;;;;;;5.20;2.33;;;;;;;1.49;100.00;97175.59;5038097;28;20212;-66
2023/01/31 06:26:40;;;;;;;8.83;2.77;;;;;;;1.44;100.00;97186.28;5038854;28;20209;-67
2023/01/31 06:29:08;;;;;;;3.80;1.30;;;;;;;1.45;100.00;97182.75;5038980;28;20229;-66
2023/01/31 06:31:35;;;;;;;6.60;2.80;;;;;;;1.34;100.00;97185.22;5039771;28;20197;-66
2023/01/31 06:34:02;;;;;;;8.30;2.60;;;;;;;1.32;100.00;97181.91;5038595;28;20296;-67
2023/01/31 06:36:30;;;;;;;6.90;3.10;;;;;;;1.38;100.00;97191.03;5039940;28;20747;-67
2023/01/31 06:38:57;;;;;;;10.23;2.73;;;;;;;1.40;100.00;97192.63;5039513;28;20205;-67
2023/01/31 06:41:25;;;;;;;10.77;3.03;;;;;;;1.73;100.00;97190.41;5039798;28;20201;-66
2023/01/31 06:43:51;;;;;;;11.33;3.07;;;;;;;1.59;100.00;97181.84;5038915;28;20208;-66
2023/01/31 06:46:18;;;;;;;4.60;2.20;;;;;;;1.60;100.00;97180.91;5039598;28;20216;-67
2023/01/31 06:48:44;;;;;;;6.60;2.37;;;;;;;1.62;100.00;97200.69;5039176;28;20225;-67
2023/01/31 06:51:11;;;;;;;4.83;2.20;;;;;;;1.71;100.00;97194.88;5039390;28;20215;-66
2023/01/31 06:53:37;;;;;;;2.07;1.40;;;;;;;1.65;100.00;97192.66;5038863;28;20209;-67
2023/01/31 06:56:04;;;;;;;10.03;2.57;;;;;;;1.70;100.00;97198.41;5038942;28;20213;-67
2023/01/31 06:58:32;;;;;;;14.70;3.10;;;;;;;1.73;100.00;97198.19;5039418;28;20240;-67
2023/01/31 07:01:04;;;;;;;4.47;2.50;;;;;;;1.85;100.00;97197.41;5038871;28;20764;-66
2023/01/31 07:03:31;;;;;;;7.47;2.70;;;;;;;1.80;100.00;97196.88;5038788;28;20216;-67
2023/01/31 07:05:57;;;;;;;10.87;3.30;;;;;;;1.88;100.00;97192.00;5039053;28;20213;-66
2023/01/31 07:08:24;;;;;;;7.93;3.00;;;;;;;1.92;100.00;97186.50;5039188;28;20233;-67
2023/01/31 07:10:50;;;;;;;8.17;3.10;;;;;;;1.94;100.00;97191.59;5038748;28;20228;-67
2023/01/31 07:13:18;;;;;;;5.17;2.47;;;;;;;1.78;100.00;97183.13;5038877;28;20216;-66
2023/01/31 07:15:46;;;;;;;14.73;3.43;;;;;;;1.93;100.00;97188.16;5038075;28;20263;-66
2023/01/31 07:18:13;;;;;;;6.77;2.53;;;;;;;1.75;100.00;97188.53;5038990;28;20208;-68
2023/01/31 07:20:39;;;;;;;4.23;2.13;;;;;;;1.88;100.00;97194.59;5038057;28;20724;-67
2023/01/31 07:23:06;;;;;;;6.67;2.63;;;;;;;2.09;99.77;97188.81;5038597;28;20205;-66
2023/01/31 07:25:33;;;;;;;2.67;1.40;;;;;;;2.03;99.58;97193.56;5038452;28;20221;-67
2023/01/31 07:27:59;;;;;;;6.20;2.00;;;;;;;2.02;99.90;97190.13;5038633;28;20204;-66
2023/01/31 07:30:26;;;;;;;6.07;2.77;;;;;;;2.11;99.43;97199.91;5037950;28;20433;-67
2023/01/31 07:32:54;;;;;;;14.13;3.80;;;;;;;2.14;99.03;97193.69;5038721;28;20206;-66
2023/01/31 07:35:21;;;;;;;11.13;3.13;;;;;;;2.20;98.52;97198.47;5037235;28;20220;-68
2023/01/31 07:37:48;;;;;;;9.53;2.50;;;;;;;2.29;98.29;97187.44;5038213;28;20205;-66
2023/01/31 07:40:15;;;;;;;15.23;3.40;;;;;;;2.25;98.19;97181.63;5038770;28;20229;-67
2023/01/31 07:42:42;;;;;;;5.20;3.37;;;;;;;2.23;97.96;97186.09;5038367;28;20211;-67
2023/01/31 07:45:12;;;;;;;8.70;3.20;;;;;;;2.33;97.92;97188.91;5037531;28;20197;-66
2023/01/31 07:47:38;;;;;;;6.47;3.27;;;;;;;2.32;97.31;97189.81;5037832;28;20199;-67
2023/01/31 07:50:07;;;;;;;13.23;4.33;;;;;;;2.27;98.42;97184.97;5037094;28;20226;-67
2023/01/31 07:52:33;;;;;;;9.60;3.60;;;;;;;2.27;97.91;97179.75;5037190;28;20724;-67
2023/01/31 07:55:00;;;;;;;6.23;2.23;;;;;;;2.21;97.82;97181.94;5036563;28;20327;-67
2023/01/31 07:57:26;;;;;;;6.47;3.17;;;;;;;2.25;97.82;97180.78;5038790;28;20217;-67
2023/01/31 07:59:52;;;;;;;11.83;4.07;;;;;;;2.27;97.12;97189.34;5038147;28;20226;-66
2023/01/31 08:05:04;;;;;;;8.00;2.73;;;;;;;2.31;96.43;97196.00;5037412;28;20216;-66
2023/01/31 08:07:32;;;;;;;8.03;3.00;;;;;;;2.21;97.45;97205.34;5036887;28;20208;-66
2023/01/31 08:09:58;;;;;;;10.03;3.77;;;;;;;2.22;96.66;97196.63;5036137;28;20612;-66
2023/01/31 08:12:25;;;;;;;9.37;2.57;;;;;;;2.28;97.30;97198.78;5036854;28;20681;-67
2023/01/31 08:14:51;;;;;;;10.27;2.90;;;;;;;2.24;97.09;97207.72;5035405;28;20208;-67
2023/01/31 08:17:18;;;;;;;7.87;3.43;;;;;;;2.30;96.86;97199.53;5037120;28;20201;-67
2023/01/31 08:19:44;;;;;;;10.83;3.90;;;;;;;2.23;96.50;97201.72;5037662;28;20222;-67
2023/01/31 08:22:11;;;;;;;8.30;3.33;;;;;;;2.20;96.27;97191.53;5037732;28;20205;-67
2023/01/31 08:24:39;;;;;;;10.20;2.80;;;;;;;2.44;96.30;97197.63;5034311;28;20320;-67
2023/01/31 08:27:05;;;;;;;10.50;4.40;;;;;;;2.38;95.72;97202.44;5035147;28;20205;-67
2023/01/31 08:29:32;;;;;;;4.47;2.63;;;;;;;2.16;96.65;97207.41;5035899;28;20232;-67
2023/01/31 08:31:58;;;;;;;7.33;2.60;;;;;;;2.26;96.39;97208.47;5033948;28;20205;-67
2023/01/31 08:34:26;;;;;;;3.97;1.70;;;;;;;2.05;97.10;97207.28;5035340;28;20209;-67
2023/01/31 08:36:53;;;;;;;3.13;1.47;;;;;;;2.19;96.73;97212.41;5036094;28;20215;-67
2023/01/31 08:39:19;;;;;;;7.87;3.50;;;;;;;2.11;97.09;97214.69;5035662;28;20220;-67
2023/01/31 08:41:47;;;;;;;9.83;2.97;;;;;;;2.16;96.78;97212.63;5036369;28;20205;-68
2023/01/31 08:44:14;;;;;;;2.90;2.13;;;;;;;2.02;97.53;97212.69;5035047;28;20365;-67
2023/01/31 08:46:41;;;;;;;5.30;1.77;;;;;;;1.99;97.66;97210.31;5034382;28;20206;-67
2023/01/31 08:49:08;;;;;;;5.97;2.57;;;;;;;2.18;97.29;97218.56;5036039;28;20846;-66
2023/01/31 08:51:35;;;;;;;6.03;2.80;;;;;;;2.20;96.25;97214.91;5035461;28;20201;-67
2023/01/31 08:54:02;;;;;;;4.20;1.83;;;;;;;2.33;96.14;97209.69;5034375;28;20208;-68
2023/01/31 08:56:28;;;;;;;7.63;2.93;;;;;;;2.25;96.74;97206.78;5035449;28;20210;-68
2023/01/31 08:58:57;;;;;;;5.83;2.77;;;;;;;2.57;95.93;97211.47;5036551;28;20725;-67
2023/01/31 09:01:23;;;;;;;4.07;2.13;;;;;;;2.51;95.96;97207.53;5035769;28;20204;-66
2023/01/31 09:03:55;;;;;;;20.20;4.93;;;;;;;2.51;95.99;97219.72;5035171;28;20212;-66
2023/01/31 09:06:23;;;;;;;4.90;2.33;;;;;;;2.57;95.04;97214.91;5036325;28;20237;-67
2023/01/31 09:08:50;;;;;;;11.57;5.00;;;;;;;2.73;94.49;97220.72;5035179;28;20296;-67
2023/01/31 09:11:17;;;;;;;13.00;4.33;;;;;;;2.82;93.96;97222.69;5035327;28;20232;-67
2023/01/31 09:13:44;;;;;;;12.50;4.60;;;;;;;3.06;93.37;97228.78;5035582;28;20205;-67
2023/01/31 09:16:13;;;;;;;6.30;2.03;;;;;;;3.15;92.69;97222.94;5035463;28;20206;-67
2023/01/31 09:18:41;;;;;;;6.43;2.40;;;;;;;3.14;91.87;97221.25;5035770;28;20212;-67
2023/01/31 09:21:09;;;;;;;3.00;2.10;;;;;;;3.27;91.16;97217.69;5035003;28;20234;-67
2023/01/31 09:23:36;;;;;;;8.33;2.53;;;;;;;3.35;90.43;97215.34;5035419;28;21076;-67
2023/01/31 09:26:03;;;;;;;6.80;3.10;;;;;;;3.62;90.54;97215.16;5035099;28;20202;-67
2023/01/31 09:28:30;;;;;;;4.57;1.30;;;;;;;3.57;88.85;97219.88;5033721;28;20206;-66
2023/01/31 09:31:02;;;;;;;7.73;3.07;;;;;;;3.79;88.93;97213.81;5034893;28;20235;-67
2023/01/31 09:33:31;;;;;;;9.17;3.10;;;;;;;3.80;88.93;97218.06;5034505;28;20767;-67
2023/01/31 09:35:59;;;;;;;3.40;2.17;;;;;;;3.59;87.97;97221.41;5034712;28;20297;-67
2023/01/31 09:38:26;;;;;;;3.57;2.23;;;;;;;3.53;88.58;97228.84;5034592;28;20208;-67
2023/01/31 09:40:54;;;;;;;10.03;3.07;;;;;;;3.52;88.58;97222.78;5034731;28;20703;-68
2023/01/31 09:43:26;;;;;;;4.93;2.40;;;;;;;3.62;88.35;97214.19;5034969;28;20591;-68
2023/01/31 09:45:56;;;;;;;5.73;2.27;;;;;;;3.62;88.27;97222.97;5034708;28;20301;-68
2023/01/31 09:48:26;;;;;;;4.30;2.70;;;;;;;3.67;87.95;97217.28;5035075;28;20312;-67
2023/01/31 09:50:58;;;;;;;13.17;3.97;;;;;;;3.72;87.18;97216.97;5034780;28;20230;-68
2023/01/31 09:53:30;;;;;;;5.00;2.43;;;;;;;3.69;86.88;97225.00;5034796;28;20206;-68
2023/01/31 09:56:05;;;;;;;2.80;2.00;;;;;;;3.61;86.63;97221.31;5034347;28;20207;-67
2023/01/31 09:58:41;;;;;;;6.10;3.03;;;;;;;3.67;85.81;97221.69;5034020;28;20218;-68
2023/01/31 10:01:14;;;;;;;6.93;2.10;;;;;;;3.78;86.53;97219.97;5033434;28;20230;-68
2023/01/31 10:03:55;;;;;;;6.30;2.30;;;;;;;3.63;86.58;97215.84;5033167;28;20203;-69
2023/01/31 10:06:25;;;;;;;4.90;1.80;;;;;;;3.74;85.62;97217.66;5035331;28;20219;-68
2023/01/31 10:09:01;;;;;;;10.70;2.90;;;;;;;3.74;86.74;97213.31;5035764;28;20208;-68
2023/01/31 10:11:34;;;;;;;14.47;3.07;;;;;;;3.95;86.71;97209.13;5033724;28;20299;-68
2023/01/31 10:14:09;;;;;;;8.10;2.97;;;;;;;3.94;86.94;97201.41;5033656;28;20694;-67
2023/01/31 10:16:39;;;;;;;6.73;3.10;;;;;;;4.05;85.85;97204.88;5035388;28;20207;-68
2023/01/31 10:19:09;;;;;;;6.70;2.63;;;;;;;4.00;84.74;97187.94;5034701;28;20231;-67
2023/01/31 10:21:43;;;;;;;6.17;2.07;;;;;;;4.07;84.65;97195.16;5033941;28;20973;-68
2023/01/31 10:24:14;;;;;;;9.60;3.17;;;;;;;4.11;84.98;97186.19;5033336;28;20715;-67
2023/01/31 10:26:44;;;;;;;7.97;2.33;;;;;;;4.03;83.36;97177.25;5034748;28;20684;-68
2023/01/31 10:29:16;;;;;;;2.33;2.10;;;;;;;3.93;82.84;97176.28;5033801;28;20223;-67
2023/01/31 10:31:48;;;;;;;4.33;2.50;;;;;;;4.05;83.34;97191.84;5036439;28;20212;-68
2023/01/31 10:34:21;;;;;;;5.87;1.90;;;;;;;3.83;82.85;97191.78;5037567;28;20211;-68
2023/01/31 10:36:58;;;;;;;4.13;1.30;;;;;;;3.93;82.27;97197.94;5038194;28;20218;-67
2023/01/31 10:39:31;;;;;;;7.43;2.13;;;;;;;3.84;81.95;97188.19;5038717;28;20237;-68
2023/01/31 10:42:11;;;;;;;5.10;1.87;;;;;;;4.07;82.67;97169.06;5038756;28;20681;-68
2023/01/31 10:44:47;;;;;;;7.23;3.07;;;;;;;4.03;82.18;97152.00;5037576;28;20212;-68
2023/01/31 10:47:15;;;;;;;6.77;2.37;;;;;;;4.08;81.89;97157.69;5038510;28;20219;-68
2023/01/31 10:49:45;;;;;;;8.87;3.20;;;;;;;4.13;82.42;97144.31;5038333;28;21151;-68
2023/01/31 10:52:27;;;;;;;5.27;3.13;;;;;;;4.24;82.53;97143.38;5037502;28;20751;-69
2023/01/31 10:55:03;;;;;;;3.07;1.83;;;;;;;4.14;82.29;97149.44;5037629;28;20221;-68
2023/01/31 10:57:30;;;;;;;2.23;1.20;;;;;;;3.98;81.90;97143.69;5038283;28;20211;-68
2023/01/31 10:59:57;;;;;;;10.87;2.27;;;;;;;4.05;82.20;97147.50;5037587;28;20224;-69
2023/01/31 11:02:25;;;;;;;4.33;1.70;;;;;;;4.02;81.91;97149.50;5037233;28;20222;-69
2023/01/31 11:04:54;;;;;;;7.80;2.60;;;;;;;4.28;81.78;97144.81;5036608;28;20200;-68
2023/01/31 11:07:23;;;;;;;7.87;3.73;;;;;;;4.34;81.26;97141.75;5037139;28;20208;-70
2023/01/31 11:09:53;;;;;;;6.60;2.30;;;;;;;4.26;81.08;97136.28;5037678;28;20238;-69
2023/01/31 11:12:20;;;;;;;4.20;2.23;;;;;;;4.32;80.47;97137.59;5038246;28;20239;-69
2023/01/31 11:15:04;;;;;;;3.30;1.70;;;;;;;4.58;80.51;97125.97;5036956;28;20243;-68
2023/01/31 11:17:35;;;;;;;5.27;2.53;;;;;;;4.41;80.18;97116.81;5037711;28;20210;-69
2023/01/31 11:20:05;;;;;;;7.20;2.90;;;;;;;4.53;80.17;97113.28;5036739;28;20899;-69
2023/01/31 11:22:37;;;;;;;7.53;2.30;;;;;;;4.44;79.43;97089.66;5036312;28;20213;-69
2023/01/31 11:25:05;;;;;;;10.60;2.17;;;;;;;4.39;79.79;97081.34;5036338;28;20263;-68
2023/01/31 11:27:37;;;;;;;9.17;2.27;;;;;;;4.56;79.86;97083.50;5038038;28;20204;-70
2023/01/31 11:30:05;;;;;;;5.10;2.17;;;;;;;4.61;79.67;97066.53;5036537;28;20328;-69
2023/01/31 11:32:35;;;;;;;11.03;2.30;;;;;;;4.39;78.63;97060.50;5036776;28;20209;-68
2023/01/31 11:35:04;;;;;;;1.23;1.00;;;;;;;4.43;78.29;97067.13;5036565;28;20208;-68
2023/01/31 11:37:34;;;;;;;3.33;1.93;;;;;;;4.60;79.02;97064.03;5036879;28;20297;-70
2023/01/31 11:40:02;;;;;;;5.73;2.10;;;;;;;4.62;78.46;97075.19;5036652;28;20215;-69
2023/01/31 11:42:28;;;;;;;4.17;1.73;;;;;;;4.54;78.93;97085.41;5037238;28;20208;-69
2023/01/31 11:44:57;;;;;;;8.33;2.93;;;;;;;4.78;79.18;97083.47;5035708;28;20219;-69
2023/01/31 11:47:39;;;;;;;10.50;3.00;;;;;;;5.04;78.71;97081.28;5036739;28;20205;-69
2023/01/31 11:50:07;;;;;;;4.13;1.73;;;;;;;4.70;78.05;97070.16;5037271;28;20232;-68
2023/01/31 11:52:36;;;;;;;4.50;1.90;;;;;;;4.79;78.64;97079.91;5037849;28;20833;-69